Time;durP1;ratioP1;P1;durP2;ratioP2;P2;SDS_P1;SDS_P2;PMS_P1;PMS_P2;Temp;Humidity;BMP_temperature;BMP_pressure;BME280_temperature;BME280_humidity;BME280_pressure;Samples;Min_cycle;Max_cycle;Signal;HPM_P1;HPM_P2
2023/08/08 00:00:29;;;;;;;9.38;4.40;;;13.50;88.60;;;;;;5048938;28;20112;-75
2023/08/08 00:02:56;;;;;;;9.85;3.90;;;13.50;88.70;;;;;;5054705;28;20017;-75
2023/08/08 00:05:23;;;;;;;6.70;4.03;;;13.50;88.60;;;;;;5054740;28;20089;-76
2023/08/08 00:07:51;;;;;;;6.25;3.78;;;13.60;88.60;;;;;;5052977;28;20307;-77
2023/08/08 00:10:18;;;;;;;4.75;3.88;;;13.60;88.50;;;;;;5056027;28;20017;-76
2023/08/08 00:12:46;;;;;;;6.28;3.97;;;13.60;88.50;;;;;;5055879;28;20518;-76
2023/08/08 00:15:13;;;;;;;6.05;3.47;;;13.70;88.50;;;;;;5055910;28;20013;-77
2023/08/08 00:17:40;;;;;;;9.05;4.22;;;13.70;88.40;;;;;;5054625;28;20045;-77
2023/08/08 00:20:09;;;;;;;7.35;3.97;;;13.70;88.30;;;;;;5055757;28;20049;-77
2023/08/08 00:22:36;;;;;;;6.65;3.63;;;13.70;88.20;;;;;;5055710;28;20029;-77
2023/08/08 00:25:04;;;;;;;5.80;3.45;;;13.70;88.20;;;;;;5055965;28;20025;-83
2023/08/08 00:27:31;;;;;;;8.65;3.80;;;13.70;88.30;;;;;;5055239;28;20039;-78
2023/08/08 00:29:59;;;;;;;6.85;3.55;;;13.70;88.20;;;;;;5054745;28;20075;-77
2023/08/08 00:32:26;;;;;;;8.48;4.15;;;13.80;88.10;;;;;;5055400;28;20057;-77
2023/08/08 00:34:53;;;;;;;6.35;3.42;;;13.80;88.10;;;;;;5045110;28;20028;-77
2023/08/08 00:37:21;;;;;;;8.90;3.70;;;13.80;87.90;;;;;;5049315;28;20086;-80
2023/08/08 00:39:48;;;;;;;7.88;3.10;;;13.80;87.80;;;;;;5051799;28;20036;-81
2023/08/08 00:42:15;;;;;;;6.97;3.47;;;13.80;87.80;;;;;;5054893;28;20029;-77
2023/08/08 00:44:43;;;;;;;5.65;2.72;;;13.80;87.70;;;;;;5049872;28;20039;-80
2023/08/08 00:47:11;;;;;;;7.68;3.17;;;13.90;87.80;;;;;;5054610;28;20107;-75
2023/08/08 00:49:39;;;;;;;7.80;2.95;;;13.90;87.80;;;;;;5055247;28;20025;-83
2023/08/08 00:52:08;;;;;;;3.97;2.30;;;13.90;87.70;;;;;;5043579;28;20025;-77
2023/08/08 00:54:35;;;;;;;5.40;2.90;;;14.00;87.60;;;;;;5061121;28;20423;-76
2023/08/08 00:57:03;;;;;;;6.50;2.85;;;14.10;87.60;;;;;;5052984;28;20028;-77
2023/08/08 00:59:30;;;;;;;6.32;2.28;;;14.00;87.60;;;;;;5050590;28;20067;-76
2023/08/08 01:01:58;;;;;;;7.32;3.05;;;14.10;87.20;;;;;;5064692;28;20033;-77
2023/08/08 01:04:29;;;;;;;3.47;1.90;;;14.10;87.10;;;;;;5043225;28;20025;-79
2023/08/08 01:07:03;;;;;;;3.13;1.90;;;14.20;87.20;;;;;;5043195;28;20025;-76
2023/08/08 01:09:47;;;;;;;4.28;2.20;;;14.20;87.30;;;;;;5042184;28;20029;-78
2023/08/08 01:12:16;;;;;;;4.78;2.45;;;14.30;87.30;;;;;;5034120;28;20064;-76
2023/08/08 01:14:45;;;;;;;4.20;2.38;;;14.50;87.00;;;;;;5039816;28;20515;-75
2023/08/08 01:17:14;;;;;;;8.45;2.85;;;14.70;86.60;;;;;;5043278;28;20510;-75
2023/08/08 01:19:41;;;;;;;4.93;2.70;;;14.80;86.50;;;;;;5052415;28;20025;-75
2023/08/08 01:22:15;;;;;;;8.35;2.72;;;15.10;86.60;;;;;;5054041;28;20415;-75
2023/08/08 01:24:44;;;;;;;8.50;3.00;;;15.30;85.90;;;;;;5053879;28;20384;-76
2023/08/08 01:27:11;;;;;;;8.50;3.10;;;15.60;84.90;;;;;;5037773;28;20079;-77
2023/08/08 01:29:39;;;;;;;6.03;2.70;;;15.80;84.20;;;;;;5043045;28;20086;-78
2023/08/08 01:32:08;;;;;;;3.42;1.70;;;15.80;83.00;;;;;;5053534;28;20025;-76
2023/08/08 01:34:37;;;;;;;4.63;2.10;;;15.80;82.80;;;;;;5052134;28;20032;-77
2023/08/08 01:37:23;;;;;;;5.60;2.05;;;15.90;83.00;;;;;;5046556;28;20033;-76
2023/08/08 01:39:53;;;;;;;6.63;2.15;;;16.00;82.80;;;;;;5052885;28;20034;-76
2023/08/08 01:42:23;;;;;;;6.28;1.73;;;15.90;81.90;;;;;;5050405;28;20025;-76
2023/08/08 01:44:51;;;;;;;6.07;1.85;;;16.00;81.10;;;;;;5051636;28;20025;-76
2023/08/08 01:47:19;;;;;;;5.65;1.77;;;16.00;80.50;;;;;;5053525;28;20021;-76
2023/08/08 01:49:46;;;;;;;11.07;2.20;;;16.00;81.10;;;;;;5052581;28;20408;-78
2023/08/08 01:52:14;;;;;;;5.25;1.90;;;16.00;81.00;;;;;;5052507;28;20025;-77
2023/08/08 01:54:42;;;;;;;4.03;1.63;;;16.00;80.30;;;;;;5052875;28;20151;-77
2023/08/08 01:57:09;;;;;;;5.55;2.35;;;16.00;79.70;;;;;;5053498;28;20384;-76
2023/08/08 01:59:37;;;;;;;1.92;1.70;;;16.00;79.70;;;;;;5049683;28;20033;-79
2023/08/08 02:02:04;;;;;;;2.40;1.58;;;16.00;79.70;;;;;;5053195;28;20021;-75
2023/08/08 02:04:31;;;;;;;3.47;1.65;;;16.00;80.00;;;;;;5052345;28;20033;-76
2023/08/08 02:06:59;;;;;;;5.05;1.65;;;15.90;79.40;;;;;;5052313;28;20028;-75
2023/08/08 02:09:27;;;;;;;3.35;1.77;;;15.90;79.40;;;;;;5053136;28;20047;-76
2023/08/08 02:11:54;;;;;;;5.25;1.48;;;15.90;79.40;;;;;;5049590;28;20021;-76
2023/08/08 02:14:22;;;;;;;4.95;1.52;;;15.90;77.50;;;;;;5052827;28;20028;-76
2023/08/08 02:16:49;;;;;;;4.60;2.05;;;16.00;77.40;;;;;;5045925;28;20531;-79
2023/08/08 02:19:16;;;;;;;4.63;1.90;;;16.10;78.00;;;;;;5036883;28;20040;-76
2023/08/08 02:21:44;;;;;;;3.80;1.83;;;16.20;78.00;;;;;;5052546;28;20028;-76
2023/08/08 02:24:11;;;;;;;4.45;1.60;;;16.30;77.30;;;;;;5040506;28;20021;-77
2023/08/08 02:26:39;;;;;;;3.17;1.90;;;16.30;77.00;;;;;;5032688;28;20033;-76
2023/08/08 02:29:06;;;;;;;3.78;2.03;;;16.40;77.40;;;;;;5046967;28;20083;-80
2023/08/08 02:31:33;;;;;;;5.03;1.75;;;16.50;77.30;;;;;;5051959;28;20067;-76
2023/08/08 02:34:01;;;;;;;4.43;1.75;;;16.50;77.10;;;;;;5046438;28;20025;-77
2023/08/08 02:36:28;;;;;;;5.45;1.83;;;16.60;77.00;;;;;;5033009;28;20048;-76
2023/08/08 02:38:55;;;;;;;3.03;1.60;;;16.60;76.50;;;;;;5037777;28;20024;-82
2023/08/08 02:41:23;;;;;;;5.20;1.80;;;16.60;76.50;;;;;;5052414;28;20037;-76
2023/08/08 02:43:50;;;;;;;3.60;1.60;;;16.60;76.50;;;;;;5049884;28;20021;-76
2023/08/08 02:46:17;;;;;;;2.63;1.52;;;16.70;76.20;;;;;;5050025;28;20025;-75
2023/08/08 02:48:45;;;;;;;3.85;1.75;;;16.70;75.70;;;;;;5046299;28;20127;-76
2023/08/08 02:51:12;;;;;;;3.70;1.88;;;16.70;75.80;;;;;;5044515;28;20487;-76
2023/08/08 02:53:40;;;;;;;6.95;2.22;;;16.80;75.70;;;;;;5042383;28;20028;-75
2023/08/08 02:56:07;;;;;;;3.22;1.80;;;16.90;75.60;;;;;;5052641;28;20021;-75
2023/08/08 02:58:34;;;;;;;5.45;2.15;;;16.90;75.70;;;;;;5052642;28;20488;-75
2023/08/08 03:01:02;;;;;;;3.60;1.83;;;16.90;75.10;;;;;;5052525;28;20108;-75
2023/08/08 03:03:29;;;;;;;3.92;1.30;;;17.00;75.10;;;;;;5051241;28;20025;-75
2023/08/08 03:05:56;;;;;;;7.50;1.60;;;16.90;74.40;;;;;;5050616;28;20036;-76
2023/08/08 03:08:24;;;;;;;4.22;1.60;;;16.90;74.30;;;;;;5042827;28;20033;-76
2023/08/08 03:10:51;;;;;;;3.05;1.85;;;16.90;74.00;;;;;;5049081;28;20377;-76
2023/08/08 03:13:19;;;;;;;3.25;1.50;;;17.00;74.10;;;;;;5052367;28;20411;-76
2023/08/08 03:15:47;;;;;;;3.58;1.52;;;17.00;74.00;;;;;;5052441;28;20025;-74
2023/08/08 03:18:14;;;;;;;6.55;1.38;;;17.00;73.90;;;;;;5041512;28;20048;-79
2023/08/08 03:20:41;;;;;;;3.70;1.70;;;17.10;73.40;;;;;;5048377;28;20532;-75
2023/08/08 03:23:09;;;;;;;3.05;1.40;;;17.10;73.10;;;;;;5044980;28;20163;-74
2023/08/08 03:25:36;;;;;;;5.78;1.70;;;17.20;73.10;;;;;;5046670;28;20096;-76
2023/08/08 03:28:04;;;;;;;5.28;1.50;;;17.10;72.70;;;;;;5048363;28;20538;-77
2023/08/08 03:30:31;;;;;;;1.88;1.33;;;17.20;73.00;;;;;;5051542;28;20472;-76
2023/08/08 03:32:58;;;;;;;5.82;1.73;;;17.20;72.20;;;;;;5049683;28;20021;-76
2023/08/08 03:35:26;;;;;;;6.07;1.48;;;17.20;72.50;;;;;;5051616;28;20025;-76
2023/08/08 03:37:54;;;;;;;7.30;1.63;;;17.30;72.80;;;;;;5056463;28;20071;-77
2023/08/08 03:40:21;;;;;;;2.13;1.42;;;17.30;72.10;;;;;;5054310;28;20021;-77
2023/08/08 03:42:49;;;;;;;4.82;1.30;;;17.30;72.00;;;;;;5054267;28;20071;-77
2023/08/08 03:45:16;;;;;;;5.30;1.58;;;17.30;72.10;;;;;;5053631;28;20025;-76
2023/08/08 03:47:45;;;;;;;4.97;1.60;;;17.30;71.90;;;;;;5054422;28;20542;-76
2023/08/08 03:50:13;;;;;;;3.90;1.73;;;17.30;71.60;;;;;;5055158;28;20036;-76
2023/08/08 03:52:40;;;;;;;4.78;1.45;;;17.30;71.60;;;;;;5054599;28;20051;-81
2023/08/08 03:55:08;;;;;;;2.97;1.50;;;17.30;71.10;;;;;;5050496;28;20017;-77
2023/08/08 03:57:35;;;;;;;4.18;1.65;;;17.40;71.70;;;;;;5053009;28;20033;-79
2023/08/08 04:00:04;;;;;;;4.20;1.45;;;17.40;71.50;;;;;;5053983;28;20021;-76
2023/08/08 04:02:31;;;;;;;2.47;1.40;;;17.50;71.80;;;;;;5052348;28;20029;-76
2023/08/08 04:04:58;;;;;;;4.13;1.65;;;17.40;71.50;;;;;;5051814;28;20017;-76
2023/08/08 04:07:26;;;;;;;3.72;1.83;;;17.50;71.70;;;;;;5054620;28;20029;-77
2023/08/08 04:09:53;;;;;;;2.60;1.60;;;17.60;71.90;;;;;;5055755;28;20029;-76
2023/08/08 04:12:20;;;;;;;4.10;1.70;;;17.60;71.40;;;;;;5055025;28;20377;-77
2023/08/08 04:14:48;;;;;;;6.30;1.52;;;17.60;71.10;;;;;;5053984;28;20025;-76
2023/08/08 04:17:15;;;;;;;4.57;1.45;;;17.60;70.70;;;;;;5053291;28;20048;-76
2023/08/08 04:19:43;;;;;;;4.60;1.48;;;17.70;71.00;;;;;;5054650;28;20029;-75
2023/08/08 04:22:10;;;;;;;6.60;1.77;;;17.60;70.80;;;;;;5035827;28;20025;-76
2023/08/08 04:24:39;;;;;;;3.30;1.45;;;17.60;70.40;;;;;;5046809;28;20091;-76
2023/08/08 04:27:06;;;;;;;3.85;1.55;;;17.70;70.20;;;;;;5052211;28;20025;-78
2023/08/08 04:29:34;;;;;;;2.90;1.40;;;17.70;69.90;;;;;;5045752;28;20653;-76
2023/08/08 04:32:01;;;;;;;4.22;1.35;;;17.70;69.60;;;;;;5053246;28;20017;-79
2023/08/08 04:34:28;;;;;;;3.15;1.40;;;17.70;70.00;;;;;;5049460;28;20112;-80
2023/08/08 04:36:56;;;;;;;2.42;1.40;;;17.70;69.80;;;;;;5054063;28;20094;-77
2023/08/08 04:39:23;;;;;;;3.42;1.30;;;17.70;69.90;;;;;;5050733;28;20029;-81
2023/08/08 04:41:50;;;;;;;4.53;1.33;;;17.70;69.90;;;;;;5048520;28;20044;-75
2023/08/08 04:44:18;;;;;;;4.60;1.67;;;17.70;70.10;;;;;;5055498;28;20637;-76
2023/08/08 04:46:45;;;;;;;2.25;1.23;;;17.80;69.90;;;;;;5052001;28;20048;-80
2023/08/08 04:49:12;;;;;;;4.13;1.50;;;17.80;70.40;;;;;;5051753;28;20032;-76
2023/08/08 04:51:40;;;;;;;3.97;1.45;;;17.80;70.00;;;;;;5054322;28;20475;-75
2023/08/08 04:54:08;;;;;;;4.22;1.58;;;17.70;69.80;;;;;;5052790;28;20060;-76
2023/08/08 04:56:35;;;;;;;2.60;1.42;;;17.70;69.90;;;;;;5062392;28;20087;-76
2023/08/08 04:59:02;;;;;;;4.72;1.60;;;17.70;70.00;;;;;;5052070;28;20028;-76
2023/08/08 05:01:30;;;;;;;5.57;1.70;;;17.70;69.90;;;;;;5046733;28;20480;-76
2023/08/08 05:03:57;;;;;;;4.35;1.45;;;17.70;70.00;;;;;;5055830;28;20044;-76
2023/08/08 05:06:24;;;;;;;9.25;1.40;;;17.70;69.80;;;;;;5054495;28;20108;-75
2023/08/08 05:08:53;;;;;;;5.20;1.60;;;17.70;69.80;;;;;;5055888;28;20380;-75
2023/08/08 05:11:20;;;;;;;3.10;1.60;;;17.70;69.20;;;;;;5054238;28;20043;-74
2023/08/08 05:13:50;;;;;;;4.57;1.42;;;17.60;69.20;;;;;;5065364;28;20033;-76
2023/08/08 05:16:18;;;;;;;4.82;1.50;;;17.70;69.40;;;;;;5045024;28;20108;-76
2023/08/08 05:18:45;;;;;;;2.47;1.45;;;17.60;69.40;;;;;;5053325;28;20060;-75
2023/08/08 05:21:13;;;;;;;3.50;1.30;;;17.60;69.60;;;;;;5046752;28;20024;-75
2023/08/08 05:23:40;;;;;;;6.63;1.55;;;17.60;69.10;;;;;;5053141;28;20029;-75
2023/08/08 05:26:07;;;;;;;3.70;1.40;;;17.60;69.10;;;;;;5044198;28;20099;-75
2023/08/08 05:28:35;;;;;;;4.05;1.58;;;17.60;69.10;;;;;;5048006;28;20488;-76
2023/08/08 05:31:02;;;;;;;4.05;1.48;;;17.50;68.80;;;;;;5049815;28;20043;-75
2023/08/08 05:33:30;;;;;;;4.07;2.05;;;17.50;68.90;;;;;;5047109;28;20052;-82
2023/08/08 05:35:57;;;;;;;5.03;1.88;;;17.50;68.70;;;;;;5046962;28;20542;-76
2023/08/08 05:38:24;;;;;;;4.28;1.30;;;17.40;68.40;;;;;;5049980;28;20068;-77
2023/08/08 05:40:52;;;;;;;4.35;1.80;;;17.40;68.90;;;;;;5048922;28;20033;-78
2023/08/08 05:43:21;;;;;;;5.00;1.80;;;17.40;69.20;;;;;;5049078;28;20124;-78
2023/08/08 05:45:48;;;;;;;4.68;1.38;;;17.30;69.30;;;;;;5052771;28;20060;-80
2023/08/08 05:48:16;;;;;;;1.40;1.25;;;17.30;69.40;;;;;;5044393;28;20397;-77
2023/08/08 05:50:43;;;;;;;3.88;1.40;;;17.30;69.50;;;;;;5051489;28;20463;-76
2023/08/08 05:53:10;;;;;;;4.18;1.58;;;17.30;69.00;;;;;;5051006;28;20526;-76
2023/08/08 05:55:40;;;;;;;2.13;1.30;;;17.20;69.10;;;;;;5047343;28;20036;-77
2023/08/08 05:58:08;;;;;;;4.10;1.73;;;17.20;69.30;;;;;;5049330;28;20029;-76
2023/08/08 06:00:35;;;;;;;5.43;1.40;;;17.20;69.30;;;;;;5046403;28;20029;-75
2023/08/08 06:03:03;;;;;;;2.72;1.30;;;17.20;69.50;;;;;;5048342;28;20020;-76
2023/08/08 06:05:30;;;;;;;2.45;1.50;;;17.20;70.00;;;;;;5046152;28;20021;-78
2023/08/08 06:07:58;;;;;;;2.92;1.42;;;17.20;70.30;;;;;;5039718;28;20716;-76
2023/08/08 06:10:25;;;;;;;2.78;1.17;;;17.10;70.40;;;;;;5049721;28;20036;-76
2023/08/08 06:12:52;;;;;;;3.80;1.30;;;17.10;70.60;;;;;;5052844;28;20029;-80
2023/08/08 06:15:20;;;;;;;3.40;1.50;;;17.10;70.90;;;;;;5049531;28;20082;-76
2023/08/08 06:17:48;;;;;;;5.35;1.40;;;17.10;71.00;;;;;;5064217;28;20041;-76
2023/08/08 06:20:15;;;;;;;3.05;1.42;;;17.10;71.10;;;;;;5064259;28;21534;-77
2023/08/08 06:22:43;;;;;;;2.20;1.35;;;17.00;71.20;;;;;;5054764;28;20115;-76
2023/08/08 06:25:11;;;;;;;4.97;1.40;;;17.00;71.40;;;;;;5053613;28;20044;-76
2023/08/08 06:27:38;;;;;;;2.17;1.23;;;17.00;71.30;;;;;;5050268;28;20043;-76
2023/08/08 06:30:08;;;;;;;4.53;1.60;;;17.00;71.50;;;;;;5049409;28;20130;-75
2023/08/08 06:32:35;;;;;;;3.13;1.13;;;17.00;71.60;;;;;;5055184;28;20021;-75
2023/08/08 06:35:03;;;;;;;4.78;1.70;;;16.90;71.60;;;;;;5045634;28;20033;-76
2023/08/08 06:37:30;;;;;;;4.18;1.50;;;16.90;71.70;;;;;;5053262;28;20024;-79
2023/08/08 06:40:01;;;;;;;6.40;1.70;;;16.90;71.70;;;;;;5062160;28;20025;-75
2023/08/08 06:42:29;;;;;;;4.93;1.50;;;16.90;71.80;;;;;;5052159;28;20136;-76
2023/08/08 06:44:57;;;;;;;4.28;1.50;;;16.80;71.80;;;;;;5047991;28;20549;-75
2023/08/08 06:47:24;;;;;;;3.00;1.90;;;16.80;71.80;;;;;;5054122;28;20379;-75
2023/08/08 06:49:51;;;;;;;6.45;1.98;;;16.80;71.90;;;;;;5049803;28;20449;-76
2023/08/08 06:52:19;;;;;;;6.68;1.70;;;16.70;72.00;;;;;;5050291;28;20357;-77
2023/08/08 06:54:46;;;;;;;3.75;2.10;;;16.70;72.20;;;;;;5042059;28;20028;-77
2023/08/08 06:57:14;;;;;;;5.68;1.70;;;16.70;72.30;;;;;;5052903;28;20031;-78
2023/08/08 06:59:41;;;;;;;3.20;1.33;;;16.70;72.30;;;;;;5049350;28;20498;-75
2023/08/08 07:02:09;;;;;;;5.88;1.63;;;16.70;72.30;;;;;;5047662;28;20132;-76
2023/08/08 07:04:36;;;;;;;6.10;1.35;;;16.70;72.20;;;;;;5051145;28;20055;-76
2023/08/08 07:07:05;;;;;;;2.78;1.40;;;16.60;72.30;;;;;;5063916;28;20028;-77
2023/08/08 07:09:32;;;;;;;4.35;1.10;;;16.50;72.40;;;;;;5051716;28;20111;-76
2023/08/08 07:12:01;;;;;;;3.88;1.50;;;16.60;72.40;;;;;;5051287;28;20025;-77
2023/08/08 07:14:28;;;;;;;2.28;1.33;;;16.50;72.60;;;;;;5043699;28;20541;-78
2023/08/08 07:16:56;;;;;;;7.32;1.55;;;16.50;72.60;;;;;;5050639;28;20647;-78
2023/08/08 07:19:23;;;;;;;2.60;1.50;;;16.50;72.70;;;;;;5057221;28;20039;-79
2023/08/08 07:21:51;;;;;;;5.65;1.58;;;16.50;72.80;;;;;;5054685;28;20027;-79
2023/08/08 07:24:20;;;;;;;5.00;1.60;;;16.50;72.80;;;;;;5054646;28;20413;-82
2023/08/08 07:26:50;;;;;;;5.22;1.20;;;16.50;73.00;;;;;;5047650;28;20361;-78
2023/08/08 07:29:17;;;;;;;6.30;1.80;;;16.40;73.00;;;;;;5040267;28;20030;-78
2023/08/08 07:31:45;;;;;;;1.55;1.20;;;16.40;73.10;;;;;;5047918;28;20498;-79
2023/08/08 07:34:12;;;;;;;8.30;1.80;;;16.40;73.10;;;;;;5052255;28;20475;-81
2023/08/08 07:36:39;;;;;;;3.33;1.40;;;16.40;73.30;;;;;;5053195;28;20052;-79
2023/08/08 07:39:07;;;;;;;3.42;1.38;;;16.30;73.30;;;;;;5052083;28;20025;-79
2023/08/08 07:41:34;;;;;;;3.10;1.40;;;16.30;73.60;;;;;;5050300;28;20033;-77
2023/08/08 07:44:03;;;;;;;2.72;1.38;;;16.30;73.80;;;;;;5049989;28;20356;-79
2023/08/08 07:46:31;;;;;;;6.00;1.90;;;16.30;74.30;;;;;;5056513;28;20021;-79
2023/08/08 07:49:03;;;;;;;3.58;1.40;;;16.20;74.20;;;;;;5059740;28;20071;-83
2023/08/08 07:51:32;;;;;;;2.90;1.60;;;16.30;74.70;;;;;;5056231;28;20021;-79
2023/08/08 07:54:00;;;;;;;4.10;1.52;;;16.20;75.00;;;;;;5072470;28;20096;-79
2023/08/08 07:56:28;;;;;;;5.13;1.73;;;16.20;75.00;;;;;;5072155;28;20021;-80
2023/08/08 07:58:55;;;;;;;3.72;1.70;;;16.20;75.30;;;;;;5057065;28;20033;-78
2023/08/08 08:01:23;;;;;;;4.78;1.63;;;16.20;75.70;;;;;;5047991;28;20040;-78
2023/08/08 08:03:50;;;;;;;4.15;1.77;;;16.20;75.90;;;;;;5037249;28;20025;-84
2023/08/08 08:06:17;;;;;;;5.95;2.33;;;16.10;75.90;;;;;;5047913;28;20479;-80
2023/08/08 08:08:45;;;;;;;6.05;2.08;;;16.10;75.60;;;;;;5048533;28;20600;-83
2023/08/08 08:11:13;;;;;;;7.68;2.00;;;16.00;75.70;;;;;;5050528;28;20029;-79
2023/08/08 08:13:40;;;;;;;3.80;1.83;;;16.00;75.50;;;;;;5051775;28;20051;-79
2023/08/08 08:16:08;;;;;;;4.43;2.55;;;16.00;75.90;;;;;;5046844;28;20020;-78
2023/08/08 08:18:35;;;;;;;5.00;2.10;;;15.90;76.00;;;;;;5048961;28;20045;-82
2023/08/08 08:21:02;;;;;;;4.70;1.88;;;15.90;76.40;;;;;;5035550;28;20463;-79
2023/08/08 08:23:32;;;;;;;6.18;2.03;;;15.90;76.30;;;;;;5049045;28;20056;-84
2023/08/08 08:26:00;;;;;;;4.53;2.10;;;15.80;76.40;;;;;;5041303;28;20022;-83
2023/08/08 08:28:28;;;;;;;2.92;2.00;;;15.80;76.50;;;;;;5045331;28;20044;-84
2023/08/08 08:30:55;;;;;;;6.60;2.50;;;15.80;76.60;;;;;;5066089;28;20479;-79
2023/08/08 08:33:22;;;;;;;9.68;2.88;;;15.70;76.70;;;;;;5052307;28;20029;-82
2023/08/08 08:35:50;;;;;;;4.75;2.28;;;15.70;76.50;;;;;;5056320;28;20527;-82
2023/08/08 08:38:17;;;;;;;4.95;2.47;;;15.70;76.90;;;;;;5052642;28;20379;-81
2023/08/08 08:40:48;;;;;;;4.70;2.00;;;15.70;77.20;;;;;;5047687;28;20018;-79
2023/08/08 08:43:16;;;;;;;7.60;3.08;;;15.60;77.50;;;;;;5049293;28;20078;-84
2023/08/08 08:45:49;;;;;;;7.25;2.40;;;15.60;77.40;;;;;;5051895;28;20036;-84
2023/08/08 08:48:16;;;;;;;7.18;2.80;;;15.60;77.60;;;;;;5048760;28;20438;-83
2023/08/08 08:50:47;;;;;;;8.63;3.28;;;15.50;77.60;;;;;;5042448;28;20076;-82
2023/08/08 08:53:17;;;;;;;9.90;4.18;;;15.50;77.80;;;;;;5051121;28;20021;-83
2023/08/08 08:55:46;;;;;;;6.90;3.20;;;15.40;77.80;;;;;;5044895;28;20021;-84
2023/08/08 08:58:18;;;;;;;9.50;3.67;;;15.40;78.10;;;;;;5043854;28;20025;-81
2023/08/08 09:00:46;;;;;;;7.75;3.78;;;15.40;78.50;;;;;;5039986;28;20025;-86
2023/08/08 09:03:16;;;;;;;7.55;3.78;;;15.30;78.40;;;;;;5052948;28;20108;-89
2023/08/08 09:05:44;;;;;;;10.75;4.32;;;15.30;78.30;;;;;;5047266;28;20025;-87
2023/08/08 09:08:12;;;;;;;7.82;3.55;;;15.30;78.20;;;;;;5049579;28;20040;-83
2023/08/08 09:10:41;;;;;;;10.40;4.05;;;15.20;78.10;;;;;;5052507;28;20029;-92
2023/08/08 09:13:15;;;;;;;8.27;3.90;;;15.20;78.50;;;;;;5043118;28;20029;-91
2023/08/08 09:15:43;;;;;;;10.60;3.88;;;15.20;78.60;;;;;;5054648;28;20026;-91
2023/08/08 09:18:12;;;;;;;11.65;4.45;;;15.10;79.00;;;;;;5049962;28;20056;-91
2023/08/08 09:20:39;;;;;;;8.77;3.88;;;15.20;78.80;;;;;;5045924;28;20048;-92
2023/08/08 09:23:18;;;;;;;11.50;4.18;;;15.10;79.00;;;;;;5046879;28;20071;-92
2023/08/08 09:25:48;;;;;;;6.15;4.07;;;15.00;78.90;;;;;;5043637;28;20051;-92
2023/08/08 09:28:16;;;;;;;6.93;4.03;;;15.00;78.80;;;;;;5050107;28;20487;-92
2023/08/08 09:30:44;;;;;;;7.47;4.03;;;15.00;78.90;;;;;;5048346;28;20029;-90
2023/08/08 09:33:12;;;;;;;10.43;4.18;;;14.90;78.90;;;;;;5051311;28;20032;-92
2023/08/08 09:35:40;;;;;;;14.20;4.93;;;14.80;79.00;;;;;;5046833;28;20025;-92
2023/08/08 09:38:08;;;;;;;7.90;4.80;;;14.90;79.30;;;;;;5037079;28;20022;-92
2023/08/08 09:40:36;;;;;;;11.32;4.50;;;14.80;79.40;;;;;;5036477;28;20379;-90
2023/08/08 09:43:07;;;;;;;8.25;3.65;;;14.80;79.20;;;;;;5036994;28;20029;-90
2023/08/08 09:45:44;;;;;;;9.75;3.70;;;14.80;79.40;;;;;;5049165;28;20025;-91
2023/08/08 09:48:12;;;;;;;7.22;3.53;;;14.70;79.60;;;;;;5059595;28;20110;-91
2023/08/08 09:50:44;;;;;;;7.85;3.20;;;14.70;79.90;;;;;;5053257;28;20025;-91
2023/08/08 09:53:13;;;;;;;5.90;3.50;;;14.70;80.20;;;;;;5044770;28;20100;-91
2023/08/08 09:55:41;;;;;;;7.97;3.53;;;14.70;80.10;;;;;;5055898;28;20024;-91
2023/08/08 09:58:15;;;;;;;21.52;14.07;;;14.70;80.20;;;;;;5050688;28;20059;-92
2023/08/08 10:01:00;;;;;;;22.98;14.65;;;14.70;80.10;;;;;;5042925;28;20097;-87
2023/08/08 10:03:29;;;;;;;11.93;7.70;;;14.70;80.00;;;;;;5061673;28;20021;-89
2023/08/08 10:05:56;;;;;;;9.45;4.70;;;14.60;79.70;;;;;;5057059;28;20029;-92
2023/08/08 10:08:24;;;;;;;6.70;4.30;;;14.50;79.90;;;;;;5055279;28;20071;-84
2023/08/08 10:10:53;;;;;;;6.47;3.78;;;14.50;79.90;;;;;;5053721;28;20029;-85
2023/08/08 10:13:23;;;;;;;10.05;4.28;;;14.50;80.70;;;;;;5064060;28;20024;-85
2023/08/08 10:15:51;;;;;;;9.10;3.63;;;14.50;80.30;;;;;;5045265;28;20040;-85
2023/08/08 10:18:24;;;;;;;10.77;4.03;;;14.50;80.10;;;;;;5056390;28;20037;-80
2023/08/08 10:20:58;;;;;;;8.65;3.30;;;14.40;80.50;;;;;;5055561;28;20033;-79
2023/08/08 10:23:26;;;;;;;9.70;4.07;;;14.50;80.70;;;;;;5061148;28;20120;-87
2023/08/08 10:25:54;;;;;;;7.10;3.45;;;14.40;80.50;;;;;;5065681;28;20028;-80
2023/08/08 10:28:23;;;;;;;6.15;3.30;;;14.30;80.80;;;;;;5081025;28;20036;-89
2023/08/08 10:30:59;;;;;;;7.47;3.28;;;14.40;81.20;;;;;;5057737;28;20024;-88
2023/08/08 10:33:50;;;;;;;11.68;4.20;;;14.40;81.40;;;;;;5056511;28;20075;-87
2023/08/08 10:36:18;;;;;;;7.72;3.70;;;14.40;81.10;;;;;;5064576;28;20009;-80
2023/08/08 10:38:49;;;;;;;9.30;4.95;;;14.30;80.90;;;;;;5060607;28;20017;-83
2023/08/08 10:41:20;;;;;;;20.05;8.40;;;14.30;80.80;;;;;;5047299;28;20025;-82
2023/08/08 10:43:52;;;;;;;10.38;6.07;;;14.20;80.80;;;;;;5055051;28;20096;-81
2023/08/08 10:46:31;;;;;;;8.85;4.40;;;14.30;81.40;;;;;;5050971;28;20025;-83
2023/08/08 10:49:02;;;;;;;6.97;4.10;;;14.20;81.20;;;;;;5055019;28;20062;-81
2023/08/08 10:51:47;;;;;;;5.80;3.47;;;14.30;81.30;;;;;;5052883;28;20108;-86
2023/08/08 10:54:18;;;;;;;7.47;3.55;;;14.20;81.40;;;;;;5039302;28;20029;-82
2023/08/08 10:57:00;;;;;;;6.55;3.38;;;14.30;81.50;;;;;;5051946;28;20104;-90
2023/08/08 10:59:37;;;;;;;6.22;3.65;;;14.30;81.30;;;;;;5048418;28;20029;-89
2023/08/08 11:02:04;;;;;;;7.43;3.63;;;14.30;81.50;;;;;;5048226;28;20059;-89
2023/08/08 11:04:32;;;;;;;7.63;3.90;;;14.30;81.30;;;;;;5048400;28;20021;-85
2023/08/08 11:07:00;;;;;;;8.80;4.82;;;14.30;81.50;;;;;;5069451;28;20020;-86
2023/08/08 11:09:28;;;;;;;10.57;4.68;;;14.30;81.10;;;;;;5059543;28;20072;-88
2023/08/08 11:11:57;;;;;;;8.35;3.35;;;14.20;80.90;;;;;;5054273;28;20365;-89
2023/08/08 11:14:24;;;;;;;4.53;3.83;;;14.20;81.00;;;;;;5053681;28;20115;-88
2023/08/08 11:16:52;;;;;;;10.00;4.50;;;14.20;81.80;;;;;;5053357;28;20041;-87
2023/08/08 11:19:20;;;;;;;10.93;5.30;;;14.20;81.80;;;;;;5055348;28;20078;-89
2023/08/08 11:21:48;;;;;;;21.27;11.10;;;14.20;81.30;;;;;;5052180;28;20025;-88
2023/08/08 11:24:16;;;;;;;12.55;5.07;;;14.20;81.20;;;;;;5053140;28;20023;-88
2023/08/08 11:26:47;;;;;;;7.28;3.30;;;14.20;81.10;;;;;;5053780;28;20028;-89
2023/08/08 11:29:15;;;;;;;6.47;3.45;;;14.10;81.10;;;;;;5052501;28;20060;-87
2023/08/08 11:31:44;;;;;;;13.48;4.60;;;14.10;81.40;;;;;;5052751;28;20075;-85
2023/08/08 11:34:12;;;;;;;9.27;4.10;;;14.10;81.60;;;;;;5063010;28;20475;-89
2023/08/08 11:36:41;;;;;;;8.27;3.85;;;14.10;81.40;;;;;;5044169;28;20096;-88
2023/08/08 11:39:10;;;;;;;13.40;4.22;;;14.10;81.40;;;;;;5035833;28;20075;-88
2023/08/08 11:41:40;;;;;;;10.02;3.88;;;14.10;81.60;;;;;;5046579;28;20155;-88
2023/08/08 11:44:09;;;;;;;9.13;3.88;;;14.10;81.60;;;;;;5070619;28;20029;-87
2023/08/08 11:46:45;;;;;;;8.00;3.53;;;14.10;81.50;;;;;;5055221;28;20041;-90
2023/08/08 11:49:16;;;;;;;;;;;14.00;81.60;;;;;;5053264;28;20154;-89
2023/08/08 11:51:45;;;;;;;9.57;3.72;;;14.00;81.70;;;;;;5049504;28;19999;-90
2023/08/08 11:54:13;;;;;;;6.57;3.38;;;14.00;81.70;;;;;;5046787;28;20029;-79
2023/08/08 11:56:41;;;;;;;6.82;3.15;;;14.00;81.70;;;;;;5046899;28;20383;-83
2023/08/08 11:59:08;;;;;;;6.07;4.05;;;14.00;81.80;;;;;;5055019;28;20458;-90
2023/08/08 12:01:38;;;;;;;8.65;3.85;;;14.00;81.80;;;;;;5056261;28;20027;-80
2023/08/08 12:04:07;;;;;;;8.27;4.28;;;13.90;81.90;;;;;;5053334;28;20072;-80
2023/08/08 12:06:42;;;;;;;8.77;3.72;;;13.90;82.00;;;;;;5054484;28;20455;-88
2023/08/08 12:09:13;;;;;;;7.22;4.47;;;13.90;82.00;;;;;;5054247;28;20024;-84
2023/08/08 12:11:40;;;;;;;7.05;4.03;;;13.90;82.10;;;;;;5054582;28;20082;-85
2023/08/08 12:14:11;;;;;;;8.70;4.60;;;13.90;82.30;;;;;;5048457;28;20028;-79
2023/08/08 12:16:39;;;;;;;7.13;3.95;;;14.00;82.20;;;;;;5064768;28;20152;-90
2023/08/08 12:19:11;;;;;;;9.43;4.32;;;14.00;82.00;;;;;;5050377;28;20029;-79
2023/08/08 12:21:38;;;;;;;8.13;4.10;;;14.00;82.10;;;;;;5052394;28;20116;-86
2023/08/08 12:24:06;;;;;;;9.55;5.47;;;14.00;82.40;;;;;;5054865;28;20021;-80
2023/08/08 12:26:33;;;;;;;7.10;4.57;;;14.00;82.10;;;;;;5053733;28;20060;-80
2023/08/08 12:29:01;;;;;;;8.10;3.92;;;14.00;82.20;;;;;;5047011;28;20492;-82
2023/08/08 12:31:28;;;;;;;7.40;4.55;;;14.00;81.80;;;;;;5060612;28;20032;-86
2023/08/08 12:33:55;;;;;;;8.73;4.93;;;13.90;82.10;;;;;;5043710;28;20065;-79
2023/08/08 12:36:23;;;;;;;10.02;4.38;;;13.90;82.10;;;;;;5049290;28;20099;-79
2023/08/08 12:38:50;;;;;;;7.93;4.18;;;13.90;82.40;;;;;;5048689;28;20033;-79
2023/08/08 12:41:18;;;;;;;9.82;4.63;;;13.90;82.70;;;;;;5054848;28;20033;-79
2023/08/08 12:43:45;;;;;;;7.80;4.65;;;14.00;82.10;;;;;;5054881;28;20091;-88
2023/08/08 12:46:13;;;;;;;8.68;4.63;;;13.90;82.00;;;;;;5054253;28;20033;-80
2023/08/08 12:48:40;;;;;;;10.18;5.15;;;13.90;82.10;;;;;;5052199;28;20080;-80
2023/08/08 12:51:08;;;;;;;9.05;4.40;;;13.90;82.10;;;;;;5054882;28;20032;-79